sensor_id;sensor_type;location;lat;lon;timestamp;temperature;humidity
67279;DHT22;54193;53.746;10.058;2023-09-12T00:00:08;18.76;89.58
67279;DHT22;54193;53.746;10.058;2023-09-12T00:02:55;18.73;89.73
67279;DHT22;54193;53.746;10.058;2023-09-12T00:05:40;18.73;90.07
67279;DHT22;54193;53.746;10.058;2023-09-12T00:08:26;18.76;90.26
67279;DHT22;54193;53.746;10.058;2023-09-12T00:11:12;18.72;90.69
67279;DHT22;54193;53.746;10.058;2023-09-12T00:13:58;18.76;90.77
67279;DHT22;54193;53.746;10.058;2023-09-12T00:16:44;18.72;90.90
67279;DHT22;54193;53.746;10.058;2023-09-12T00:19:30;18.76;91.03
67279;DHT22;54193;53.746;10.058;2023-09-12T00:22:16;18.73;91.25
67279;DHT22;54193;53.746;10.058;2023-09-12T00:25:01;18.73;91.34
67279;DHT22;54193;53.746;10.058;2023-09-12T00:27:47;18.65;91.65
67279;DHT22;54193;53.746;10.058;2023-09-12T00:30:33;18.64;91.70
67279;DHT22;54193;53.746;10.058;2023-09-12T00:33:19;18.59;91.90
67279;DHT22;54193;53.746;10.058;2023-09-12T00:36:04;18.59;92.04
67279;DHT22;54193;53.746;10.058;2023-09-12T00:38:50;18.59;92.07
67279;DHT22;54193;53.746;10.058;2023-09-12T00:41:35;18.52;92.23
67279;DHT22;54193;53.746;10.058;2023-09-12T00:44:21;18.47;92.29
67279;DHT22;54193;53.746;10.058;2023-09-12T00:47:08;18.56;92.39
67279;DHT22;54193;53.746;10.058;2023-09-12T00:49:56;18.52;92.57
67279;DHT22;54193;53.746;10.058;2023-09-12T00:52:43;18.45;92.55
67279;DHT22;54193;53.746;10.058;2023-09-12T00:55:31;18.47;92.58
67279;DHT22;54193;53.746;10.058;2023-09-12T00:58:18;18.45;92.72
67279;DHT22;54193;53.746;10.058;2023-09-12T01:01:04;18.45;92.87
67279;DHT22;54193;53.746;10.058;2023-09-12T01:03:49;18.38;93.07
67279;DHT22;54193;53.746;10.058;2023-09-12T01:06:36;18.34;93.25
67279;DHT22;54193;53.746;10.058;2023-09-12T01:09:22;18.30;93.35
67279;DHT22;54193;53.746;10.058;2023-09-12T01:12:08;18.28;93.48
67279;DHT22;54193;53.746;10.058;2023-09-12T01:14:54;18.31;93.31
67279;DHT22;54193;53.746;10.058;2023-09-12T01:17:44;18.30;93.34
67279;DHT22;54193;53.746;10.058;2023-09-12T01:20:34;18.30;93.35
67279;DHT22;54193;53.746;10.058;2023-09-12T01:23:32;18.28;93.34
67279;DHT22;54193;53.746;10.058;2023-09-12T01:26:37;18.24;93.43
67279;DHT22;54193;53.746;10.058;2023-09-12T01:29:26;18.30;93.43
67279;DHT22;54193;53.746;10.058;2023-09-12T01:32:14;18.31;93.47
67279;DHT22;54193;53.746;10.058;2023-09-12T01:35:00;18.31;93.46
67279;DHT22;54193;53.746;10.058;2023-09-12T01:37:45;18.35;93.47
67279;DHT22;54193;53.746;10.058;2023-09-12T01:40:58;18.37;93.55
67279;DHT22;54193;53.746;10.058;2023-09-12T01:43:43;18.40;93.51
67279;DHT22;54193;53.746;10.058;2023-09-12T01:46:30;18.43;93.40
67279;DHT22;54193;53.746;10.058;2023-09-12T01:49:18;18.45;93.38
67279;DHT22;54193;53.746;10.058;2023-09-12T01:52:05;18.48;93.26
67279;DHT22;54193;53.746;10.058;2023-09-12T01:54:51;18.41;93.26
67279;DHT22;54193;53.746;10.058;2023-09-12T01:57:38;18.51;93.24
67279;DHT22;54193;53.746;10.058;2023-09-12T02:00:24;18.49;93.11
67279;DHT22;54193;53.746;10.058;2023-09-12T02:03:09;18.49;93.16
67279;DHT22;54193;53.746;10.058;2023-09-12T02:05:55;18.52;93.11
67279;DHT22;54193;53.746;10.058;2023-09-12T02:08:41;18.52;93.12
67279;DHT22;54193;53.746;10.058;2023-09-12T02:11:27;18.55;93.16
67279;DHT22;54193;53.746;10.058;2023-09-12T02:14:13;18.47;93.40
67279;DHT22;54193;53.746;10.058;2023-09-12T02:16:58;18.40;93.56
67279;DHT22;54193;53.746;10.058;2023-09-12T02:19:47;18.33;93.63
67279;DHT22;54193;53.746;10.058;2023-09-12T02:22:33;18.40;93.66
67279;DHT22;54193;53.746;10.058;2023-09-12T02:25:18;18.37;93.74
67279;DHT22;54193;53.746;10.058;2023-09-12T02:28:04;18.43;93.72
67279;DHT22;54193;53.746;10.058;2023-09-12T02:30:50;18.47;93.67
67279;DHT22;54193;53.746;10.058;2023-09-12T02:33:39;18.48;93.47
67279;DHT22;54193;53.746;10.058;2023-09-12T02:36:25;18.47;93.57
67279;DHT22;54193;53.746;10.058;2023-09-12T02:39:11;18.54;93.61
67279;DHT22;54193;53.746;10.058;2023-09-12T02:41:56;18.51;93.51
67279;DHT22;54193;53.746;10.058;2023-09-12T02:44:42;18.48;93.49
67279;DHT22;54193;53.746;10.058;2023-09-12T02:47:27;18.45;93.51
67279;DHT22;54193;53.746;10.058;2023-09-12T02:50:13;18.45;93.62
67279;DHT22;54193;53.746;10.058;2023-09-12T02:52:59;18.44;93.64
67279;DHT22;54193;53.746;10.058;2023-09-12T02:55:44;18.45;93.66
67279;DHT22;54193;53.746;10.058;2023-09-12T02:58:30;18.43;93.67
67279;DHT22;54193;53.746;10.058;2023-09-12T03:01:16;18.44;93.84
67279;DHT22;54193;53.746;10.058;2023-09-12T03:04:02;18.43;93.84
67279;DHT22;54193;53.746;10.058;2023-09-12T03:06:48;18.48;93.80
67279;DHT22;54193;53.746;10.058;2023-09-12T03:09:33;18.54;93.78
67279;DHT22;54193;53.746;10.058;2023-09-12T03:12:19;18.56;93.74
67279;DHT22;54193;53.746;10.058;2023-09-12T03:15:05;18.58;93.63
67279;DHT22;54193;53.746;10.058;2023-09-12T03:17:51;18.61;93.66
67279;DHT22;54193;53.746;10.058;2023-09-12T03:20:40;18.69;93.58
67279;DHT22;54193;53.746;10.058;2023-09-12T03:23:25;18.73;93.53
67279;DHT22;54193;53.746;10.058;2023-09-12T03:26:11;18.81;93.46
67279;DHT22;54193;53.746;10.058;2023-09-12T03:28:57;18.83;93.42
67279;DHT22;54193;53.746;10.058;2023-09-12T03:31:42;18.83;93.33
67279;DHT22;54193;53.746;10.058;2023-09-12T03:34:29;18.85;93.44
67279;DHT22;54193;53.746;10.058;2023-09-12T03:37:14;18.85;93.48
67279;DHT22;54193;53.746;10.058;2023-09-12T03:40:00;18.83;93.63
67279;DHT22;54193;53.746;10.058;2023-09-12T03:42:45;18.76;93.72
67279;DHT22;54193;53.746;10.058;2023-09-12T03:45:31;18.71;93.98
67279;DHT22;54193;53.746;10.058;2023-09-12T03:48:17;18.68;93.99
67279;DHT22;54193;53.746;10.058;2023-09-12T03:51:03;18.75;93.94
67279;DHT22;54193;53.746;10.058;2023-09-12T03:53:49;18.71;93.97
67279;DHT22;54193;53.746;10.058;2023-09-12T03:56:35;18.73;93.94
67279;DHT22;54193;53.746;10.058;2023-09-12T03:59:21;18.73;93.96
67279;DHT22;54193;53.746;10.058;2023-09-12T04:02:06;18.69;94.10
67279;DHT22;54193;53.746;10.058;2023-09-12T04:04:52;18.65;94.13
67279;DHT22;54193;53.746;10.058;2023-09-12T04:07:37;18.69;94.11
67279;DHT22;54193;53.746;10.058;2023-09-12T04:10:23;18.72;94.14
67279;DHT22;54193;53.746;10.058;2023-09-12T04:13:09;18.72;94.07
67279;DHT22;54193;53.746;10.058;2023-09-12T04:15:54;18.66;94.23
67279;DHT22;54193;53.746;10.058;2023-09-12T04:18:40;18.69;94.17
67279;DHT22;54193;53.746;10.058;2023-09-12T04:21:25;18.68;94.22
67279;DHT22;54193;53.746;10.058;2023-09-12T04:24:11;18.61;94.38
67279;DHT22;54193;53.746;10.058;2023-09-12T04:26:57;18.54;94.55
67279;DHT22;54193;53.746;10.058;2023-09-12T04:29:42;18.56;94.57
67279;DHT22;54193;53.746;10.058;2023-09-12T04:32:28;18.56;94.60
67279;DHT22;54193;53.746;10.058;2023-09-12T04:35:14;18.54;94.90
67279;DHT22;54193;53.746;10.058;2023-09-12T04:37:59;18.44;95.15
67279;DHT22;54193;53.746;10.058;2023-09-12T04:40:55;18.38;95.14
67279;DHT22;54193;53.746;10.058;2023-09-12T04:43:41;18.33;95.35
67279;DHT22;54193;53.746;10.058;2023-09-12T04:46:28;18.23;95.38
67279;DHT22;54193;53.746;10.058;2023-09-12T04:49:14;18.26;95.37
67279;DHT22;54193;53.746;10.058;2023-09-12T04:51:59;18.27;95.37
67279;DHT22;54193;53.746;10.058;2023-09-12T04:54:45;18.28;95.24
67279;DHT22;54193;53.746;10.058;2023-09-12T04:57:31;18.26;95.32
67279;DHT22;54193;53.746;10.058;2023-09-12T05:00:16;18.28;95.35
67279;DHT22;54193;53.746;10.058;2023-09-12T05:03:02;18.27;95.40
67279;DHT22;54193;53.746;10.058;2023-09-12T05:05:49;18.37;95.71
67279;DHT22;54193;53.746;10.058;2023-09-12T05:08:35;18.28;95.83
67279;DHT22;54193;53.746;10.058;2023-09-12T05:11:22;18.30;96.05
67279;DHT22;54193;53.746;10.058;2023-09-12T05:14:09;18.34;96.09
67279;DHT22;54193;53.746;10.058;2023-09-12T05:16:54;18.37;96.09
67279;DHT22;54193;53.746;10.058;2023-09-12T05:19:40;18.35;96.00
67279;DHT22;54193;53.746;10.058;2023-09-12T05:22:26;18.37;95.91
67279;DHT22;54193;53.746;10.058;2023-09-12T05:25:12;18.38;95.81
67279;DHT22;54193;53.746;10.058;2023-09-12T05:27:58;18.37;95.85
67279;DHT22;54193;53.746;10.058;2023-09-12T05:30:44;18.40;95.76
67279;DHT22;54193;53.746;10.058;2023-09-12T05:33:29;18.43;95.79
67279;DHT22;54193;53.746;10.058;2023-09-12T05:36:15;18.44;95.79
67279;DHT22;54193;53.746;10.058;2023-09-12T05:39:00;18.49;95.92
67279;DHT22;54193;53.746;10.058;2023-09-12T05:41:46;18.49;95.91
67279;DHT22;54193;53.746;10.058;2023-09-12T05:44:32;18.52;95.89
67279;DHT22;54193;53.746;10.058;2023-09-12T05:47:17;18.51;95.95
67279;DHT22;54193;53.746;10.058;2023-09-12T05:50:03;18.52;95.86
67279;DHT22;54193;53.746;10.058;2023-09-12T05:52:52;18.51;95.88
67279;DHT22;54193;53.746;10.058;2023-09-12T05:55:38;18.52;95.95
67279;DHT22;54193;53.746;10.058;2023-09-12T05:58:23;18.56;95.86
67279;DHT22;54193;53.746;10.058;2023-09-12T06:01:09;18.56;95.86
67279;DHT22;54193;53.746;10.058;2023-09-12T06:03:54;18.56;95.81
67279;DHT22;54193;53.746;10.058;2023-09-12T06:06:40;18.58;95.91
67279;DHT22;54193;53.746;10.058;2023-09-12T06:09:26;18.61;96.08
67279;DHT22;54193;53.746;10.058;2023-09-12T06:12:11;18.58;96.06
67279;DHT22;54193;53.746;10.058;2023-09-12T06:14:57;18.62;96.07
67279;DHT22;54193;53.746;10.058;2023-09-12T06:17:43;18.68;96.11
67279;DHT22;54193;53.746;10.058;2023-09-12T06:20:28;18.72;95.99
67279;DHT22;54193;53.746;10.058;2023-09-12T06:23:14;18.75;96.05
67279;DHT22;54193;53.746;10.058;2023-09-12T06:25:59;18.82;95.89
67279;DHT22;54193;53.746;10.058;2023-09-12T06:28:45;18.86;95.75
67279;DHT22;54193;53.746;10.058;2023-09-12T06:31:31;18.93;95.68
67279;DHT22;54193;53.746;10.058;2023-09-12T06:34:17;18.96;95.67
67279;DHT22;54193;53.746;10.058;2023-09-12T06:37:02;19.09;95.63
67279;DHT22;54193;53.746;10.058;2023-09-12T06:39:51;19.06;95.40
67279;DHT22;54193;53.746;10.058;2023-09-12T06:42:37;19.02;95.11
67279;DHT22;54193;53.746;10.058;2023-09-12T06:45:22;19.02;95.15
67279;DHT22;54193;53.746;10.058;2023-09-12T06:48:08;18.99;95.09
67279;DHT22;54193;53.746;10.058;2023-09-12T06:50:54;18.92;94.85
67279;DHT22;54193;53.746;10.058;2023-09-12T06:53:39;18.99;95.01
67279;DHT22;54193;53.746;10.058;2023-09-12T06:56:25;18.99;95.05
67279;DHT22;54193;53.746;10.058;2023-09-12T06:59:11;18.96;95.05
67279;DHT22;54193;53.746;10.058;2023-09-12T07:01:56;19.09;95.04
67279;DHT22;54193;53.746;10.058;2023-09-12T07:04:42;19.17;95.20
67279;DHT22;54193;53.746;10.058;2023-09-12T07:07:28;19.30;95.03
67279;DHT22;54193;53.746;10.058;2023-09-12T07:10:13;19.35;94.92
67279;DHT22;54193;53.746;10.058;2023-09-12T07:12:59;19.27;94.63
67279;DHT22;54193;53.746;10.058;2023-09-12T07:15:45;19.38;94.67
67279;DHT22;54193;53.746;10.058;2023-09-12T07:18:31;19.44;94.63
67279;DHT22;54193;53.746;10.058;2023-09-12T07:21:19;19.53;94.54
67279;DHT22;54193;53.746;10.058;2023-09-12T07:24:06;19.51;94.17
67279;DHT22;54193;53.746;10.058;2023-09-12T07:26:52;19.50;93.72
67279;DHT22;54193;53.746;10.058;2023-09-12T07:29:38;19.61;93.78
67279;DHT22;54193;53.746;10.058;2023-09-12T07:32:24;19.64;93.70
67279;DHT22;54193;53.746;10.058;2023-09-12T07:35:09;19.58;93.68
67279;DHT22;54193;53.746;10.058;2023-09-12T07:37:56;19.59;93.46
67279;DHT22;54193;53.746;10.058;2023-09-12T07:40:42;19.62;93.56
67279;DHT22;54193;53.746;10.058;2023-09-12T07:43:27;19.64;93.39
67279;DHT22;54193;53.746;10.058;2023-09-12T07:46:13;19.67;93.41
67279;DHT22;54193;53.746;10.058;2023-09-12T07:48:59;19.69;93.40
67279;DHT22;54193;53.746;10.058;2023-09-12T07:51:45;19.74;93.20
67279;DHT22;54193;53.746;10.058;2023-09-12T07:54:30;19.81;92.95
67279;DHT22;54193;53.746;10.058;2023-09-12T07:57:16;19.68;92.42
67279;DHT22;54193;53.746;10.058;2023-09-12T08:00:04;19.74;92.64
67279;DHT22;54193;53.746;10.058;2023-09-12T08:02:54;19.86;92.62
67279;DHT22;54193;53.746;10.058;2023-09-12T08:05:40;19.95;92.39
67279;DHT22;54193;53.746;10.058;2023-09-12T08:08:26;19.97;92.23
67279;DHT22;54193;53.746;10.058;2023-09-12T08:11:11;20.05;91.94
67279;DHT22;54193;53.746;10.058;2023-09-12T08:13:57;20.09;91.60
67279;DHT22;54193;53.746;10.058;2023-09-12T08:16:43;20.10;91.21
67279;DHT22;54193;53.746;10.058;2023-09-12T08:19:28;20.26;91.24
67279;DHT22;54193;53.746;10.058;2023-09-12T08:22:14;20.40;90.80
67279;DHT22;54193;53.746;10.058;2023-09-12T08:25:00;20.60;90.33
67279;DHT22;54193;53.746;10.058;2023-09-12T08:27:45;20.87;89.69
67279;DHT22;54193;53.746;10.058;2023-09-12T08:30:31;21.02;89.57
67279;DHT22;54193;53.746;10.058;2023-09-12T08:33:16;20.87;88.57
67279;DHT22;54193;53.746;10.058;2023-09-12T08:36:02;20.98;88.40
67279;DHT22;54193;53.746;10.058;2023-09-12T08:38:48;21.26;88.34
67279;DHT22;54193;53.746;10.058;2023-09-12T08:41:34;21.42;88.19
67279;DHT22;54193;53.746;10.058;2023-09-12T08:44:20;21.65;87.40
67279;DHT22;54193;53.746;10.058;2023-09-12T08:47:08;21.77;86.53
67279;DHT22;54193;53.746;10.058;2023-09-12T08:49:54;21.82;86.18
67279;DHT22;54193;53.746;10.058;2023-09-12T08:52:42;21.80;86.64
67279;DHT22;54193;53.746;10.058;2023-09-12T08:55:28;21.80;86.14
67279;DHT22;54193;53.746;10.058;2023-09-12T08:58:14;21.84;86.83
67279;DHT22;54193;53.746;10.058;2023-09-12T09:01:00;21.88;85.45
67279;DHT22;54193;53.746;10.058;2023-09-12T09:03:48;22.06;85.90
67279;DHT22;54193;53.746;10.058;2023-09-12T09:06:35;22.23;85.21
67279;DHT22;54193;53.746;10.058;2023-09-12T09:09:22;22.20;84.21
67279;DHT22;54193;53.746;10.058;2023-09-12T09:12:09;22.16;85.02
67279;DHT22;54193;53.746;10.058;2023-09-12T09:14:56;22.13;83.67
67279;DHT22;54193;53.746;10.058;2023-09-12T09:17:42;22.02;82.83
67279;DHT22;54193;53.746;10.058;2023-09-12T09:20:31;22.33;84.07
67279;DHT22;54193;53.746;10.058;2023-09-12T09:23:17;22.46;82.77
67279;DHT22;54193;53.746;10.058;2023-09-12T09:26:03;22.22;80.91
67279;DHT22;54193;53.746;10.058;2023-09-12T09:29:10;22.33;82.10
67279;DHT22;54193;53.746;10.058;2023-09-12T09:31:56;22.30;81.70
67279;DHT22;54193;53.746;10.058;2023-09-12T09:34:42;22.61;81.06
67279;DHT22;54193;53.746;10.058;2023-09-12T09:37:28;23.07;78.25
67279;DHT22;54193;53.746;10.058;2023-09-12T09:40:14;22.87;78.23
67279;DHT22;54193;53.746;10.058;2023-09-12T09:43:00;23.12;78.28
67279;DHT22;54193;53.746;10.058;2023-09-12T09:45:47;23.43;77.26
67279;DHT22;54193;53.746;10.058;2023-09-12T09:48:33;23.35;77.52
67279;DHT22;54193;53.746;10.058;2023-09-12T09:51:18;23.32;76.69
67279;DHT22;54193;53.746;10.058;2023-09-12T09:54:07;23.05;77.81
67279;DHT22;54193;53.746;10.058;2023-09-12T09:56:55;22.97;78.15
67279;DHT22;54193;53.746;10.058;2023-09-12T09:59:40;22.53;78.10
67279;DHT22;54193;53.746;10.058;2023-09-12T10:02:27;22.84;78.46
67279;DHT22;54193;53.746;10.058;2023-09-12T10:05:13;22.60;77.95
67279;DHT22;54193;53.746;10.058;2023-09-12T10:08:02;22.52;79.15
67279;DHT22;54193;53.746;10.058;2023-09-12T10:10:48;22.50;79.79
67279;DHT22;54193;53.746;10.058;2023-09-12T10:13:35;22.12;80.61
67279;DHT22;54193;53.746;10.058;2023-09-12T10:16:24;22.45;80.43
67279;DHT22;54193;53.746;10.058;2023-09-12T10:19:15;22.70;79.69
67279;DHT22;54193;53.746;10.058;2023-09-12T10:24:56;22.83;79.14
67279;DHT22;54193;53.746;10.058;2023-09-12T10:27:42;22.98;78.20
67279;DHT22;54193;53.746;10.058;2023-09-12T10:30:28;22.90;77.70
67279;DHT22;54193;53.746;10.058;2023-09-12T10:33:15;23.11;77.81
67279;DHT22;54193;53.746;10.058;2023-09-12T10:36:03;23.36;78.26
67279;DHT22;54193;53.746;10.058;2023-09-12T10:38:50;23.22;77.36
67279;DHT22;54193;53.746;10.058;2023-09-12T10:41:40;23.22;78.11
67279;DHT22;54193;53.746;10.058;2023-09-12T10:44:25;23.10;78.75
67279;DHT22;54193;53.746;10.058;2023-09-12T10:47:12;23.04;77.50
67279;DHT22;54193;53.746;10.058;2023-09-12T10:49:59;22.78;77.27
67279;DHT22;54193;53.746;10.058;2023-09-12T10:52:44;22.84;77.47
67279;DHT22;54193;53.746;10.058;2023-09-12T10:55:30;22.92;77.98
67279;DHT22;54193;53.746;10.058;2023-09-12T10:58:15;22.92;77.85
67279;DHT22;54193;53.746;10.058;2023-09-12T11:01:24;22.68;78.38
67279;DHT22;54193;53.746;10.058;2023-09-12T11:10:23;22.80;78.28
67279;DHT22;54193;53.746;10.058;2023-09-12T11:13:17;22.86;78.61
67279;DHT22;54193;53.746;10.058;2023-09-12T11:16:10;22.95;77.01
67279;DHT22;54193;53.746;10.058;2023-09-12T11:21:59;22.92;77.38
67279;DHT22;54193;53.746;10.058;2023-09-12T11:24:45;22.98;77.55
67279;DHT22;54193;53.746;10.058;2023-09-12T11:27:43;22.75;77.55
67279;DHT22;54193;53.746;10.058;2023-09-12T11:30:29;22.57;78.40
67279;DHT22;54193;53.746;10.058;2023-09-12T11:33:17;22.56;78.32
67279;DHT22;54193;53.746;10.058;2023-09-12T11:36:03;22.46;78.89
67279;DHT22;54193;53.746;10.058;2023-09-12T11:39:01;22.37;79.28
67279;DHT22;54193;53.746;10.058;2023-09-12T11:41:47;22.23;80.18
67279;DHT22;54193;53.746;10.058;2023-09-12T11:44:33;22.22;80.09
67279;DHT22;54193;53.746;10.058;2023-09-12T11:47:19;22.08;80.21
67279;DHT22;54193;53.746;10.058;2023-09-12T11:50:05;22.09;80.82
67279;DHT22;54193;53.746;10.058;2023-09-12T11:53:08;22.04;81.19
67279;DHT22;54193;53.746;10.058;2023-09-12T11:55:57;21.99;81.62
67279;DHT22;54193;53.746;10.058;2023-09-12T11:58:43;21.92;81.54
67279;DHT22;54193;53.746;10.058;2023-09-12T12:01:29;21.95;81.24
67279;DHT22;54193;53.746;10.058;2023-09-12T12:04:15;21.94;81.43
67279;DHT22;54193;53.746;10.058;2023-09-12T12:07:01;21.98;81.63
67279;DHT22;54193;53.746;10.058;2023-09-12T12:09:48;21.92;81.82
67279;DHT22;54193;53.746;10.058;2023-09-12T12:12:33;21.90;82.36
67279;DHT22;54193;53.746;10.058;2023-09-12T12:15:19;21.88;82.33
67279;DHT22;54193;53.746;10.058;2023-09-12T12:18:05;21.92;83.06
67279;DHT22;54193;53.746;10.058;2023-09-12T12:20:51;21.90;83.87
67279;DHT22;54193;53.746;10.058;2023-09-12T12:23:37;21.78;83.67
67279;DHT22;54193;53.746;10.058;2023-09-12T12:26:24;21.65;84.13
67279;DHT22;54193;53.746;10.058;2023-09-12T12:29:11;21.54;85.10
67279;DHT22;54193;53.746;10.058;2023-09-12T12:32:01;21.39;85.53
67279;DHT22;54193;53.746;10.058;2023-09-12T12:34:48;21.36;86.03
67279;DHT22;54193;53.746;10.058;2023-09-12T12:37:35;21.26;86.23
67279;DHT22;54193;53.746;10.058;2023-09-12T12:40:21;21.27;86.38
67279;DHT22;54193;53.746;10.058;2023-09-12T12:43:16;21.39;86.16
67279;DHT22;54193;53.746;10.058;2023-09-12T12:46:02;21.50;85.90
67279;DHT22;54193;53.746;10.058;2023-09-12T12:48:48;21.54;86.25
67279;DHT22;54193;53.746;10.058;2023-09-12T12:51:33;21.50;85.28
67279;DHT22;54193;53.746;10.058;2023-09-12T12:54:21;21.67;85.32
67279;DHT22;54193;53.746;10.058;2023-09-12T12:57:09;21.75;84.73
67279;DHT22;54193;53.746;10.058;2023-09-12T13:00:01;21.92;84.35
67279;DHT22;54193;53.746;10.058;2023-09-12T13:02:48;22.09;83.54
67279;DHT22;54193;53.746;10.058;2023-09-12T13:05:33;22.09;82.71
67279;DHT22;54193;53.746;10.058;2023-09-12T13:08:19;22.22;82.73
67279;DHT22;54193;53.746;10.058;2023-09-12T13:11:05;22.40;81.86
67279;DHT22;54193;53.746;10.058;2023-09-12T13:13:50;22.60;82.28
67279;DHT22;54193;53.746;10.058;2023-09-12T13:16:37;22.80;82.01
67279;DHT22;54193;53.746;10.058;2023-09-12T13:19:25;22.83;80.90
67279;DHT22;54193;53.746;10.058;2023-09-12T13:22:11;22.97;80.72
67279;DHT22;54193;53.746;10.058;2023-09-12T13:24:57;23.16;79.46
67279;DHT22;54193;53.746;10.058;2023-09-12T13:27:43;23.23;79.23
67279;DHT22;54193;53.746;10.058;2023-09-12T13:30:28;23.22;79.46
67279;DHT22;54193;53.746;10.058;2023-09-12T13:33:14;23.22;79.20
67279;DHT22;54193;53.746;10.058;2023-09-12T13:36:03;23.16;79.38
67279;DHT22;54193;53.746;10.058;2023-09-12T13:38:49;23.14;78.52
67279;DHT22;54193;53.746;10.058;2023-09-12T13:41:36;23.11;78.26
67279;DHT22;54193;53.746;10.058;2023-09-12T13:44:22;23.05;79.24
67279;DHT22;54193;53.746;10.058;2023-09-12T13:47:08;23.23;78.87
67279;DHT22;54193;53.746;10.058;2023-09-12T13:49:53;23.41;79.04
67279;DHT22;54193;53.746;10.058;2023-09-12T13:52:39;23.26;78.76
67279;DHT22;54193;53.746;10.058;2023-09-12T13:55:25;23.21;78.89
67279;DHT22;54193;53.746;10.058;2023-09-12T13:58:10;23.14;79.47
67279;DHT22;54193;53.746;10.058;2023-09-12T14:00:56;23.10;79.72
67279;DHT22;54193;53.746;10.058;2023-09-12T14:03:42;23.11;79.80
67279;DHT22;54193;53.746;10.058;2023-09-12T14:06:27;23.14;79.84
67279;DHT22;54193;53.746;10.058;2023-09-12T14:09:13;22.97;80.27
67279;DHT22;54193;53.746;10.058;2023-09-12T14:12:01;23.07;80.50
67279;DHT22;54193;53.746;10.058;2023-09-12T14:14:46;22.95;80.88
67279;DHT22;54193;53.746;10.058;2023-09-12T14:17:33;22.92;81.21
67279;DHT22;54193;53.746;10.058;2023-09-12T14:20:19;22.81;80.39
67279;DHT22;54193;53.746;10.058;2023-09-12T14:23:04;22.87;80.84
67279;DHT22;54193;53.746;10.058;2023-09-12T14:25:50;22.95;81.21
67279;DHT22;54193;53.746;10.058;2023-09-12T14:28:37;22.95;81.38
67279;DHT22;54193;53.746;10.058;2023-09-12T14:31:22;22.83;80.72
67279;DHT22;54193;53.746;10.058;2023-09-12T14:34:08;22.81;81.42
67279;DHT22;54193;53.746;10.058;2023-09-12T14:36:55;22.77;81.75
67279;DHT22;54193;53.746;10.058;2023-09-12T14:39:41;22.73;82.08
67279;DHT22;54193;53.746;10.058;2023-09-12T14:42:26;22.59;81.96
67279;DHT22;54193;53.746;10.058;2023-09-12T14:45:14;22.43;82.24
67279;DHT22;54193;53.746;10.058;2023-09-12T14:48:00;22.36;82.66
67279;DHT22;54193;53.746;10.058;2023-09-12T14:50:46;22.40;82.84
67279;DHT22;54193;53.746;10.058;2023-09-12T14:53:34;22.32;82.24
67279;DHT22;54193;53.746;10.058;2023-09-12T14:56:20;22.33;82.54
67279;DHT22;54193;53.746;10.058;2023-09-12T14:59:05;22.37;82.88
67279;DHT22;54193;53.746;10.058;2023-09-12T15:01:52;22.35;82.29
67279;DHT22;54193;53.746;10.058;2023-09-12T15:04:37;22.40;82.57
67279;DHT22;54193;53.746;10.058;2023-09-12T15:07:23;22.39;81.93
67279;DHT22;54193;53.746;10.058;2023-09-12T15:10:09;22.50;81.75
67279;DHT22;54193;53.746;10.058;2023-09-12T15:12:55;22.73;81.29
67279;DHT22;54193;53.746;10.058;2023-09-12T15:15:40;22.77;81.02
67279;DHT22;54193;53.746;10.058;2023-09-12T15:18:26;22.78;80.45
67279;DHT22;54193;53.746;10.058;2023-09-12T15:21:12;22.80;80.45
67279;DHT22;54193;53.746;10.058;2023-09-12T15:23:57;22.81;80.73
67279;DHT22;54193;53.746;10.058;2023-09-12T15:26:43;22.95;80.01
67279;DHT22;54193;53.746;10.058;2023-09-12T15:29:28;22.84;78.83
67279;DHT22;54193;53.746;10.058;2023-09-12T15:32:14;23.02;79.65
67279;DHT22;54193;53.746;10.058;2023-09-12T15:35:00;23.01;79.75
67279;DHT22;54193;53.746;10.058;2023-09-12T15:37:45;23.12;79.90
67279;DHT22;54193;53.746;10.058;2023-09-12T15:40:32;23.18;79.57
67279;DHT22;54193;53.746;10.058;2023-09-12T15:43:17;22.94;79.55
67279;DHT22;54193;53.746;10.058;2023-09-12T15:46:03;22.78;79.78
67279;DHT22;54193;53.746;10.058;2023-09-12T15:48:49;22.67;80.85
67279;DHT22;54193;53.746;10.058;2023-09-12T15:51:34;22.67;80.41
67279;DHT22;54193;53.746;10.058;2023-09-12T15:54:20;22.56;80.91
67279;DHT22;54193;53.746;10.058;2023-09-12T15:57:06;22.43;81.45
67279;DHT22;54193;53.746;10.058;2023-09-12T15:59:52;22.36;81.22
67279;DHT22;54193;53.746;10.058;2023-09-12T16:02:38;22.26;82.01
67279;DHT22;54193;53.746;10.058;2023-09-12T16:05:23;22.06;81.93
67279;DHT22;54193;53.746;10.058;2023-09-12T16:08:09;21.98;82.30
67279;DHT22;54193;53.746;10.058;2023-09-12T16:10:56;21.92;82.40
67279;DHT22;54193;53.746;10.058;2023-09-12T16:13:42;21.87;82.89
67279;DHT22;54193;53.746;10.058;2023-09-12T16:16:28;21.80;83.32
67279;DHT22;54193;53.746;10.058;2023-09-12T16:19:14;21.77;83.18
67279;DHT22;54193;53.746;10.058;2023-09-12T16:21:59;21.73;83.50
67279;DHT22;54193;53.746;10.058;2023-09-12T16:24:45;21.65;83.47
67279;DHT22;54193;53.746;10.058;2023-09-12T16:27:31;21.65;83.91
67279;DHT22;54193;53.746;10.058;2023-09-12T16:30:16;21.58;84.21
67279;DHT22;54193;53.746;10.058;2023-09-12T16:33:02;21.58;83.89
67279;DHT22;54193;53.746;10.058;2023-09-12T16:35:48;21.58;83.93
67279;DHT22;54193;53.746;10.058;2023-09-12T16:38:37;21.54;84.27
67279;DHT22;54193;53.746;10.058;2023-09-12T16:41:22;21.49;84.09
67279;DHT22;54193;53.746;10.058;2023-09-12T16:44:08;21.44;84.44
67279;DHT22;54193;53.746;10.058;2023-09-12T16:46:54;21.37;84.58
67279;DHT22;54193;53.746;10.058;2023-09-12T16:49:39;21.33;84.95
67279;DHT22;54193;53.746;10.058;2023-09-12T16:52:25;21.29;85.29
67279;DHT22;54193;53.746;10.058;2023-09-12T16:55:11;21.25;85.30
67279;DHT22;54193;53.746;10.058;2023-09-12T16:57:58;21.16;85.63
67279;DHT22;54193;53.746;10.058;2023-09-12T17:00:44;21.05;86.00
67279;DHT22;54193;53.746;10.058;2023-09-12T17:03:29;21.00;86.31
67279;DHT22;54193;53.746;10.058;2023-09-12T17:06:15;20.92;86.42
67279;DHT22;54193;53.746;10.058;2023-09-12T17:09:01;20.89;86.54
67279;DHT22;54193;53.746;10.058;2023-09-12T17:11:48;20.89;86.70
67279;DHT22;54193;53.746;10.058;2023-09-12T17:14:34;20.82;86.89
67279;DHT22;54193;53.746;10.058;2023-09-12T17:17:19;20.79;86.86
67279;DHT22;54193;53.746;10.058;2023-09-12T17:20:05;20.74;86.94
67279;DHT22;54193;53.746;10.058;2023-09-12T17:22:51;20.68;87.03
67279;DHT22;54193;53.746;10.058;2023-09-12T17:25:37;20.63;87.40